Kirwin, Kansas
Current Conditions -  °F | °C
As of 7:53 AM on Friday 24 Oct 2014 (Local Time) from KHLC Reporting Station
Haze Haze  
Wind Chill: 51°   Ceiling: Unl
Heat Index: 51°   Visibility: 4mi
Dew Point: 50°   Wind: 6mph
Humidity: 96%   Direction: 250°WSW
Pressure: 30"   Gusts: NA
Location:  39.67°N, 99.12°W
Report Text: KHLC 241253Z AUTO 25005KT 4SM BR CLR 11/10 A3000 RMK AO2 SLP152 T01060100
Loading
Personal Weather Stations






























Interactive Weather Map New forecast layout! Learn more

10-Day Weather Forecast

Advertisements
Track Severe Weather on mobile